Time;durP1;ratioP1;P1;durP2;ratioP2;P2;SDS_P1;SDS_P2;PMS_P1;PMS_P2;Temp;Humidity;BMP_temperature;BMP_pressure;BME280_temperature;BME280_humidity;BME280_pressure;Samples;Min_cycle;Max_cycle;Signal;HPM_P1;HPM_P2
2023/03/04 00:01:51;;;;;;;19.53;10.70;;;;;;;;;;4993731;28;20424;-42
2023/03/04 00:04:17;;;;;;;24.77;10.93;;;;;;;;;;4993194;28;20400;-42
2023/03/04 00:06:43;;;;;;;20.00;10.40;;;;;;;;;;4993402;28;20498;-43
2023/03/04 00:09:09;;;;;;;19.73;10.27;;;;;;;;;;4992307;28;20436;-42
2023/03/04 00:11:36;;;;;;;20.23;9.18;;;;;;;;;;4993435;28;20527;-42
2023/03/04 00:14:02;;;;;;;18.45;8.52;;;;;;;;;;4992293;28;20173;-42
2023/03/04 00:16:28;;;;;;;18.30;8.20;;;;;;;;;;4994349;28;20531;-42
2023/03/04 00:18:54;;;;;;;11.55;7.93;;;;;;;;;;4993620;28;20404;-42
2023/03/04 00:21:21;;;;;;;21.15;10.32;;;;;;;;;;4993146;28;20193;-42
2023/03/04 00:23:47;;;;;;;17.25;7.60;;;;;;;;;;4993831;28;20232;-42
2023/03/04 00:26:13;;;;;;;18.42;8.77;;;;;;;;;;4993990;28;20310;-42
2023/03/04 00:28:39;;;;;;;24.60;7.82;;;;;;;;;;4993842;28;20645;-42
2023/03/04 00:31:08;;;;;;;28.20;8.45;;;;;;;;;;4993152;28;20674;-42
2023/03/04 00:33:34;;;;;;;18.73;7.97;;;;;;;;;;4993685;28;20189;-42
2023/03/04 00:36:01;;;;;;;19.80;8.43;;;;;;;;;;4991822;28;20185;-42
2023/03/04 00:38:28;;;;;;;15.43;6.75;;;;;;;;;;4993598;28;20588;-44
2023/03/04 00:40:54;;;;;;;18.38;8.30;;;;;;;;;;4993052;28;20180;-42
2023/03/04 00:43:20;;;;;;;19.58;9.60;;;;;;;;;;4993529;28;20223;-42
2023/03/04 00:45:46;;;;;;;14.93;8.50;;;;;;;;;;4993542;28;20201;-42
2023/03/04 00:48:12;;;;;;;22.80;9.13;;;;;;;;;;4993707;28;20503;-43
2023/03/04 00:50:38;;;;;;;24.13;9.90;;;;;;;;;;4992538;28;20416;-43
2023/03/04 00:53:04;;;;;;;18.23;8.70;;;;;;;;;;4993373;28;20436;-42
2023/03/04 00:55:30;;;;;;;23.23;10.05;;;;;;;;;;4993422;28;20235;-42
2023/03/04 00:57:56;;;;;;;17.58;9.00;;;;;;;;;;4993421;28;20184;-43
2023/03/04 01:00:22;;;;;;;20.98;8.68;;;;;;;;;;4986413;28;20188;-43
2023/03/04 01:02:48;;;;;;;19.13;8.45;;;;;;;;;;4993042;28;20284;-44
2023/03/04 01:05:15;;;;;;;17.23;7.45;;;;;;;;;;4992419;28;20684;-47
2023/03/04 01:07:40;;;;;;;19.90;8.32;;;;;;;;;;4990343;28;20912;-41
2023/03/04 01:10:08;;;;;;;15.63;7.53;;;;;;;;;;4992047;28;20230;-42
2023/03/04 01:12:33;;;;;;;17.10;7.80;;;;;;;;;;4992961;28;20443;-44
2023/03/04 01:14:59;;;;;;;22.53;8.10;;;;;;;;;;4993020;28;20173;-43
2023/03/04 01:17:25;;;;;;;14.03;7.97;;;;;;;;;;4989768;28;20440;-44
2023/03/04 01:19:51;;;;;;;12.27;6.38;;;;;;;;;;4992312;28;20444;-44
2023/03/04 01:22:17;;;;;;;15.57;7.40;;;;;;;;;;4991314;28;20306;-42
2023/03/04 01:24:44;;;;;;;19.77;7.93;;;;;;;;;;4992671;28;20181;-42
2023/03/04 01:27:10;;;;;;;11.73;6.35;;;;;;;;;;4997367;28;20693;-42
2023/03/04 01:29:36;;;;;;;10.48;5.50;;;;;;;;;;4992295;28;20187;-42
2023/03/04 01:32:02;;;;;;;9.90;6.10;;;;;;;;;;4991749;28;20204;-43
2023/03/04 01:34:28;;;;;;;11.70;5.57;;;;;;;;;;4992178;28;20424;-42
2023/03/04 01:36:53;;;;;;;12.53;6.40;;;;;;;;;;4991819;28;20424;-43
2023/03/04 01:39:20;;;;;;;18.93;5.83;;;;;;;;;;4991831;28;20440;-43
2023/03/04 01:41:46;;;;;;;16.95;5.68;;;;;;;;;;4991997;28;20446;-42
2023/03/04 01:44:12;;;;;;;10.80;5.33;;;;;;;;;;4992387;28;20263;-43
2023/03/04 01:46:39;;;;;;;25.83;5.10;;;;;;;;;;4992321;28;20515;-43
2023/03/04 01:49:09;;;;;;;12.02;5.03;;;;;;;;;;4992566;28;20200;-42
2023/03/04 01:51:35;;;;;;;14.65;5.95;;;;;;;;;;4991576;28;20251;-42
2023/03/04 01:54:01;;;;;;;11.38;4.93;;;;;;;;;;4992282;28;20169;-42
2023/03/04 01:56:27;;;;;;;8.20;4.17;;;;;;;;;;4992405;28;20250;-42
2023/03/04 01:59:10;;;;;;;14.33;5.37;;;;;;;;;;4992197;28;20416;-42
2023/03/04 02:01:36;;;;;;;16.85;5.03;;;;;;;;;;4990550;28;21017;-42
2023/03/04 02:04:02;;;;;;;19.13;4.97;;;;;;;;;;4991571;28;20188;-42
2023/03/04 02:06:28;;;;;;;8.93;4.82;;;;;;;;;;4990832;28;20711;-42
2023/03/04 02:08:54;;;;;;;13.75;5.05;;;;;;;;;;4991101;28;20264;-42
2023/03/04 02:11:20;;;;;;;15.53;4.30;;;;;;;;;;4990585;28;20284;-42
2023/03/04 02:13:46;;;;;;;13.18;4.10;;;;;;;;;;4991908;28;20401;-43
2023/03/04 02:16:12;;;;;;;14.37;5.37;;;;;;;;;;4992222;28;20671;-43
2023/03/04 02:18:38;;;;;;;12.37;4.47;;;;;;;;;;4992043;28;20420;-43
2023/03/04 02:21:17;;;;;;;16.97;4.83;;;;;;;;;;4991407;28;20432;-45
2023/03/04 02:23:52;;;;;;;8.77;5.18;;;;;;;;;;4992230;28;20423;-43
2023/03/04 02:26:18;;;;;;;12.05;5.50;;;;;;;;;;4991918;28;20207;-41
2023/03/04 02:28:44;;;;;;;16.43;4.80;;;;;;;;;;4991779;28;20173;-42
2023/03/04 02:31:17;;;;;;;13.80;5.13;;;;;;;;;;4991421;28;20435;-42
2023/03/04 02:33:43;;;;;;;7.47;4.95;;;;;;;;;;4991491;28;20664;-43
2023/03/04 02:36:09;;;;;;;7.77;4.40;;;;;;;;;;4991848;28;20184;-42
2023/03/04 02:38:36;;;;;;;12.85;4.40;;;;;;;;;;4990730;28;20428;-42
2023/03/04 02:41:02;;;;;;;7.50;3.40;;;;;;;;;;4990911;28;20205;-42
2023/03/04 02:43:28;;;;;;;18.70;4.83;;;;;;;;;;4994812;28;20736;-42
2023/03/04 02:45:54;;;;;;;11.60;5.30;;;;;;;;;;4995800;28;20462;-42
2023/03/04 02:48:22;;;;;;;12.07;4.60;;;;;;;;;;4995836;28;20825;-43
2023/03/04 02:50:50;;;;;;;16.77;5.05;;;;;;;;;;4994678;28;20780;-43
2023/03/04 02:53:20;;;;;;;9.07;4.32;;;;;;;;;;4995535;28;20173;-42
2023/03/04 02:55:46;;;;;;;5.70;3.42;;;;;;;;;;4995855;28;20192;-42
2023/03/04 02:58:12;;;;;;;16.88;4.75;;;;;;;;;;4995656;28;20553;-42
2023/03/04 03:00:39;;;;;;;11.90;4.45;;;;;;;;;;4994822;28;20208;-44
2023/03/04 03:03:05;;;;;;;7.70;3.50;;;;;;;;;;4995122;28;20193;-42
2023/03/04 03:05:32;;;;;;;7.25;3.92;;;;;;;;;;4995445;28;20232;-44
2023/03/04 03:07:58;;;;;;;9.65;4.65;;;;;;;;;;4994211;28;20672;-42
2023/03/04 03:10:24;;;;;;;20.73;6.10;;;;;;;;;;4994170;28;20231;-43
2023/03/04 03:12:50;;;;;;;15.70;4.63;;;;;;;;;;4994814;28;20436;-43
2023/03/04 03:15:16;;;;;;;7.20;4.40;;;;;;;;;;4995936;28;20323;-43
2023/03/04 03:17:42;;;;;;;10.82;4.88;;;;;;;;;;5008231;28;20176;-42
2023/03/04 03:20:09;;;;;;;22.23;4.10;;;;;;;;;;5005716;28;20181;-42
2023/03/04 03:22:35;;;;;;;11.30;3.80;;;;;;;;;;4998833;28;20453;-43
2023/03/04 03:25:01;;;;;;;5.43;3.50;;;;;;;;;;5013756;28;20686;-42
2023/03/04 03:27:27;;;;;;;9.65;4.00;;;;;;;;;;4995014;28;20451;-42
2023/03/04 03:29:53;;;;;;;13.20;4.63;;;;;;;;;;5011225;28;20251;-42
2023/03/04 03:32:22;;;;;;;13.13;4.72;;;;;;;;;;5000175;28;20448;-42
2023/03/04 03:34:48;;;;;;;6.55;4.60;;;;;;;;;;4994596;28;20247;-42
2023/03/04 03:37:14;;;;;;;9.40;4.17;;;;;;;;;;4994941;28;20184;-42
2023/03/04 03:39:40;;;;;;;8.93;3.78;;;;;;;;;;4992555;28;20514;-42
2023/03/04 03:42:06;;;;;;;16.30;4.20;;;;;;;;;;4994056;28;20307;-42
2023/03/04 03:44:32;;;;;;;17.50;5.27;;;;;;;;;;4994641;28;20415;-43
2023/03/04 03:46:58;;;;;;;9.30;3.80;;;;;;;;;;4994601;28;20522;-43
2023/03/04 03:49:24;;;;;;;8.45;3.95;;;;;;;;;;4994611;28;20460;-42
2023/03/04 03:51:50;;;;;;;17.77;3.90;;;;;;;;;;4993552;28;20208;-42
2023/03/04 03:54:16;;;;;;;11.40;4.57;;;;;;;;;;4993931;28;20420;-42
2023/03/04 03:56:42;;;;;;;6.53;4.07;;;;;;;;;;4994786;28;20439;-42
2023/03/04 03:59:08;;;;;;;10.70;5.40;;;;;;;;;;4994599;28;20455;-42
2023/03/04 04:01:34;;;;;;;8.33;3.23;;;;;;;;;;4993802;28;20815;-43
2023/03/04 04:04:00;;;;;;;17.27;4.17;;;;;;;;;;4994127;28;20433;-42
2023/03/04 04:06:26;;;;;;;16.80;5.28;;;;;;;;;;4994245;28;20460;-43
2023/03/04 04:08:52;;;;;;;12.02;3.80;;;;;;;;;;4992692;28;20177;-43
2023/03/04 04:11:18;;;;;;;12.00;3.92;;;;;;;;;;4992978;28;20284;-44
2023/03/04 04:13:44;;;;;;;8.90;3.80;;;;;;;;;;4994520;28;20204;-43
2023/03/04 04:16:10;;;;;;;8.20;4.50;;;;;;;;;;4994229;28;20404;-43
2023/03/04 04:18:37;;;;;;;8.55;3.55;;;;;;;;;;4994286;28;20444;-44
2023/03/04 04:21:03;;;;;;;13.80;4.30;;;;;;;;;;4993251;28;20228;-43
2023/03/04 04:23:29;;;;;;;7.50;3.90;;;;;;;;;;4994004;28;20197;-43
2023/03/04 04:25:55;;;;;;;8.60;4.47;;;;;;;;;;4993948;28;20217;-44
2023/03/04 04:28:21;;;;;;;6.07;3.78;;;;;;;;;;4994078;28;20462;-44
2023/03/04 04:30:47;;;;;;;10.48;4.55;;;;;;;;;;4993092;28;20177;-44
2023/03/04 04:33:13;;;;;;;7.03;3.30;;;;;;;;;;4993462;28;20193;-44
2023/03/04 04:35:39;;;;;;;15.50;4.53;;;;;;;;;;4993803;28;20412;-43
2023/03/04 04:38:06;;;;;;;11.13;4.85;;;;;;;;;;4992960;28;20408;-44
2023/03/04 04:40:32;;;;;;;16.60;4.40;;;;;;;;;;4992161;28;20185;-44
2023/03/04 04:42:58;;;;;;;11.68;3.90;;;;;;;;;;4993540;28;20215;-44
2023/03/04 04:45:24;;;;;;;15.07;3.80;;;;;;;;;;4993615;28;20185;-43
2023/03/04 04:47:54;;;;;;;20.33;4.53;;;;;;;;;;4993571;28;20868;-43
2023/03/04 04:50:32;;;;;;;11.55;3.72;;;;;;;;;;4992824;28;20577;-44
2023/03/04 04:53:01;;;;;;;15.65;4.03;;;;;;;;;;4993008;28;20576;-43
2023/03/04 04:58:30;;;;;;;14.32;3.20;;;;;;;;;;4993624;28;20265;-43
2023/03/04 05:00:57;;;;;;;6.83;3.47;;;;;;;;;;4991098;28;20665;-44
2023/03/04 05:03:22;;;;;;;7.05;3.90;;;;;;;;;;4993097;28;20432;-43
2023/03/04 05:05:48;;;;;;;13.83;3.53;;;;;;;;;;4992290;28;20243;-44
2023/03/04 05:08:14;;;;;;;16.60;4.07;;;;;;;;;;4992354;28;20431;-43
2023/03/04 05:10:40;;;;;;;4.30;2.83;;;;;;;;;;4991749;28;20436;-44
2023/03/04 05:13:06;;;;;;;8.67;3.17;;;;;;;;;;4992562;28;20431;-44
2023/03/04 05:15:32;;;;;;;6.00;2.87;;;;;;;;;;4993299;28;20444;-43
2023/03/04 05:17:58;;;;;;;11.23;3.97;;;;;;;;;;4992965;28;20415;-43
2023/03/04 05:20:24;;;;;;;13.27;4.03;;;;;;;;;;4992391;28;20408;-44
2023/03/04 05:22:51;;;;;;;7.82;3.17;;;;;;;;;;4991746;28;20444;-43
2023/03/04 05:25:16;;;;;;;6.88;2.85;;;;;;;;;;4992745;28;20180;-43
2023/03/04 05:27:42;;;;;;;6.53;3.43;;;;;;;;;;4993329;28;20187;-44
2023/03/04 05:30:09;;;;;;;13.37;3.37;;;;;;;;;;4992226;28;20836;-44
2023/03/04 05:32:35;;;;;;;7.00;3.00;;;;;;;;;;4992662;28;20435;-44
2023/03/04 05:35:01;;;;;;;8.47;3.30;;;;;;;;;;4992510;28;20181;-43
2023/03/04 05:37:26;;;;;;;12.80;3.50;;;;;;;;;;4992882;28;20415;-44
2023/03/04 05:39:52;;;;;;;9.63;3.17;;;;;;;;;;4992646;28;20915;-44
2023/03/04 05:42:18;;;;;;;5.47;2.50;;;;;;;;;;4991858;28;20462;-44
2023/03/04 05:44:44;;;;;;;5.47;2.77;;;;;;;;;;4991385;28;20446;-44
2023/03/04 05:47:10;;;;;;;12.80;3.17;;;;;;;;;;4991967;28;20605;-43
2023/03/04 05:49:36;;;;;;;3.23;2.40;;;;;;;;;;4992597;28;20471;-43
2023/03/04 05:52:02;;;;;;;11.87;3.17;;;;;;;;;;4992235;28;20502;-43
2023/03/04 05:54:28;;;;;;;10.80;3.20;;;;;;;;;;4991127;28;20424;-44
2023/03/04 05:56:54;;;;;;;9.33;3.13;;;;;;;;;;4992269;28;20962;-43
2023/03/04 05:59:20;;;;;;;4.33;2.87;;;;;;;;;;4992459;28;20911;-43
2023/03/04 06:01:46;;;;;;;9.80;2.93;;;;;;;;;;4991825;28;20834;-43
2023/03/04 06:04:12;;;;;;;10.30;2.92;;;;;;;;;;4992467;28;20416;-44
2023/03/04 06:06:38;;;;;;;8.97;2.80;;;;;;;;;;4992293;28;20197;-43
2023/03/04 06:09:04;;;;;;;11.03;3.23;;;;;;;;;;4991135;28;20431;-44
2023/03/04 06:11:30;;;;;;;8.63;4.10;;;;;;;;;;4990697;28;20522;-43
2023/03/04 06:13:56;;;;;;;7.83;3.37;;;;;;;;;;4991702;28;20412;-44
2023/03/04 06:16:22;;;;;;;6.93;3.90;;;;;;;;;;4992098;28;20419;-44
2023/03/04 06:18:48;;;;;;;7.03;3.00;;;;;;;;;;4992068;28;20435;-43
2023/03/04 06:21:14;;;;;;;7.63;2.87;;;;;;;;;;4991551;28;20440;-43
2023/03/04 06:23:40;;;;;;;6.72;2.70;;;;;;;;;;4991973;28;20471;-44
2023/03/04 06:26:10;;;;;;;11.23;2.85;;;;;;;;;;4991751;28;20209;-43
2023/03/04 06:28:36;;;;;;;7.22;2.53;;;;;;;;;;4992109;28;20372;-43
2023/03/04 06:31:02;;;;;;;12.07;3.40;;;;;;;;;;4991449;28;20207;-44
2023/03/04 06:33:28;;;;;;;8.37;3.70;;;;;;;;;;4991755;28;20547;-43
2023/03/04 06:35:55;;;;;;;9.70;2.73;;;;;;;;;;4991883;28;20408;-43
2023/03/04 06:38:21;;;;;;;5.68;2.92;;;;;;;;;;4991927;28;20896;-43
2023/03/04 06:40:47;;;;;;;7.83;2.70;;;;;;;;;;4989927;28;20185;-43
2023/03/04 06:43:13;;;;;;;5.97;2.87;;;;;;;;;;4991830;28;20404;-43
2023/03/04 06:45:39;;;;;;;6.80;2.47;;;;;;;;;;4991695;28;20916;-44
2023/03/04 06:48:05;;;;;;;3.67;2.80;;;;;;;;;;4991946;28;20400;-43
2023/03/04 06:50:31;;;;;;;5.90;4.07;;;;;;;;;;4991284;28;20177;-43
2023/03/04 06:52:57;;;;;;;11.60;2.80;;;;;;;;;;4991243;28;20220;-44
2023/03/04 06:55:23;;;;;;;12.52;3.28;;;;;;;;;;4991940;28;20503;-43
2023/03/04 06:57:49;;;;;;;11.30;2.50;;;;;;;;;;4991795;28;20264;-43
2023/03/04 07:00:15;;;;;;;3.10;2.60;;;;;;;;;;4991160;28;20690;-43
2023/03/04 07:02:41;;;;;;;10.90;2.90;;;;;;;;;;4991511;28;20244;-43
2023/03/04 07:05:09;;;;;;;14.35;3.13;;;;;;;;;;4988682;28;20188;-44
2023/03/04 07:07:34;;;;;;;4.20;2.35;;;;;;;;;;4991513;28;20732;-43
2023/03/04 07:10:00;;;;;;;8.87;3.03;;;;;;;;;;4990425;28;20265;-44
2023/03/04 07:12:26;;;;;;;8.20;3.07;;;;;;;;;;4990545;28;20444;-43
2023/03/04 07:14:52;;;;;;;7.13;2.73;;;;;;;;;;4991496;28;20415;-43
2023/03/04 07:17:18;;;;;;;13.43;2.90;;;;;;;;;;4991766;28;20404;-42
2023/03/04 07:19:44;;;;;;;6.50;2.80;;;;;;;;;;4992001;28;20408;-43
2023/03/04 07:22:10;;;;;;;6.15;2.85;;;;;;;;;;4990868;28;20207;-43
2023/03/04 07:24:36;;;;;;;10.50;2.70;;;;;;;;;;4991582;28;20268;-43
2023/03/04 07:27:02;;;;;;;8.73;3.13;;;;;;;;;;4989714;28;20561;-44
2023/03/04 07:29:28;;;;;;;5.57;2.80;;;;;;;;;;4993999;28;20761;-42
2023/03/04 07:31:54;;;;;;;14.10;2.67;;;;;;;;;;4994178;28;20200;-43
2023/03/04 07:34:20;;;;;;;8.10;2.33;;;;;;;;;;4994435;28;20807;-44
2023/03/04 07:36:46;;;;;;;6.70;2.70;;;;;;;;;;4995032;28;20420;-43
2023/03/04 07:39:13;;;;;;;6.10;2.70;;;;;;;;;;4994917;28;20426;-43
2023/03/04 07:41:39;;;;;;;3.50;2.42;;;;;;;;;;4992857;28;20542;-43
2023/03/04 07:44:06;;;;;;;5.35;2.92;;;;;;;;;;4993707;28;20620;-44
2023/03/04 07:46:32;;;;;;;10.15;2.67;;;;;;;;;;4994512;28;20205;-43
2023/03/04 07:48:58;;;;;;;4.18;2.05;;;;;;;;;;4994508;28;20649;-43
2023/03/04 07:51:25;;;;;;;8.10;2.60;;;;;;;;;;4993932;28;20196;-43
2023/03/04 07:53:52;;;;;;;2.30;2.10;;;;;;;;;;4994550;28;20416;-43
2023/03/04 07:56:20;;;;;;;7.13;2.33;;;;;;;;;;4994401;28;20660;-43
2023/03/04 07:58:46;;;;;;;3.35;2.53;;;;;;;;;;4994505;28;20189;-43
2023/03/04 08:01:13;;;;;;;7.30;2.10;;;;;;;;;;4993758;28;20209;-44
2023/03/04 08:03:39;;;;;;;9.57;2.70;;;;;;;;;;4996047;28;20176;-44
2023/03/04 08:06:06;;;;;;;5.90;2.40;;;;;;;;;;4993851;28;20205;-44
2023/03/04 08:08:32;;;;;;;9.30;2.67;;;;;;;;;;4993895;28;20404;-43
2023/03/04 08:10:58;;;;;;;4.75;2.58;;;;;;;;;;4983811;28;20181;-43
2023/03/04 08:13:24;;;;;;;5.90;2.23;;;;;;;;;;4999478;28;20566;-43
2023/03/04 08:15:50;;;;;;;14.80;3.47;;;;;;;;;;4994306;28;20428;-43
2023/03/04 08:18:16;;;;;;;11.93;2.63;;;;;;;;;;4993925;28;20919;-43
2023/03/04 08:20:42;;;;;;;4.20;2.43;;;;;;;;;;4994944;28;20519;-43
2023/03/04 08:23:08;;;;;;;7.25;3.00;;;;;;;;;;4993934;28;20429;-43
2023/03/04 08:25:34;;;;;;;3.50;2.67;;;;;;;;;;4993851;28;20693;-44
2023/03/04 08:28:00;;;;;;;7.30;2.83;;;;;;;;;;4994022;28;20404;-43
2023/03/04 08:30:26;;;;;;;2.07;1.73;;;;;;;;;;4993389;28;20420;-44
2023/03/04 08:32:52;;;;;;;2.60;2.27;;;;;;;;;;5000601;28;20449;-44
2023/03/04 08:35:18;;;;;;;35.23;19.20;;;;;;;;;;4994042;28;20848;-43
2023/03/04 08:37:44;;;;;;;10.57;4.80;;;;;;;;;;4993822;28;20458;-43
2023/03/04 08:40:11;;;;;;;4.93;1.83;;;;;;;;;;4992115;28;20492;-43
2023/03/04 08:42:37;;;;;;;4.23;2.10;;;;;;;;;;4993784;28;20445;-43
2023/03/04 08:45:03;;;;;;;4.70;2.13;;;;;;;;;;4993635;28;20794;-43
2023/03/04 08:47:29;;;;;;;8.10;3.00;;;;;;;;;;4993395;28;20463;-43
2023/03/04 08:49:57;;;;;;;5.77;2.27;;;;;;;;;;4993170;28;20418;-43
2023/03/04 08:52:23;;;;;;;4.77;2.50;;;;;;;;;;4993085;28;20457;-43
2023/03/04 08:54:49;;;;;;;3.10;2.73;;;;;;;;;;4991573;28;20460;-43
2023/03/04 08:57:15;;;;;;;14.60;3.07;;;;;;;;;;4993230;28;20468;-43
2023/03/04 08:59:41;;;;;;;11.70;4.80;;;;;;;;;;4993338;28;20457;-44
2023/03/04 09:02:07;;;;;;;5.43;3.20;;;;;;;;;;4992471;28;20429;-43
2023/03/04 09:04:32;;;;;;;10.23;3.63;;;;;;;;;;4992020;28;20433;-44
2023/03/04 09:06:58;;;;;;;6.33;3.03;;;;;;;;;;4993109;28;20994;-43
2023/03/04 09:09:24;;;;;;;6.13;3.50;;;;;;;;;;4993320;28;20790;-43
2023/03/04 09:11:50;;;;;;;7.10;4.10;;;;;;;;;;4992488;28;20446;-43
2023/03/04 09:14:16;;;;;;;8.17;4.10;;;;;;;;;;4993219;28;20415;-43
2023/03/04 09:16:42;;;;;;;6.47;4.00;;;;;;;;;;4992962;28;20475;-43
2023/03/04 09:19:08;;;;;;;6.23;3.80;;;;;;;;;;4984719;28;20463;-43
2023/03/04 09:21:34;;;;;;;7.23;4.20;;;;;;;;;;4992336;28;20427;-43
2023/03/04 09:24:00;;;;;;;8.70;4.27;;;;;;;;;;4993104;28;20964;-44
2023/03/04 09:26:27;;;;;;;9.23;4.80;;;;;;;;;;4992983;28;21011;-44
2023/03/04 09:28:54;;;;;;;9.27;4.47;;;;;;;;;;4998318;28;20437;-43
2023/03/04 09:31:20;;;;;;;11.50;5.50;;;;;;;;;;4991778;28;20448;-43
2023/03/04 09:33:46;;;;;;;10.77;5.70;;;;;;;;;;4991538;28;20428;-43
2023/03/04 09:36:13;;;;;;;9.20;5.40;;;;;;;;;;4991944;28;20910;-43
2023/03/04 09:38:40;;;;;;;14.13;5.53;;;;;;;;;;4992177;28;20994;-43
2023/03/04 09:41:19;;;;;;;8.73;6.90;;;;;;;;;;4991746;28;20928;-43
2023/03/04 09:43:46;;;;;;;15.07;6.63;;;;;;;;;;4992420;28;20414;-43
2023/03/04 09:46:17;;;;;;;11.67;6.83;;;;;;;;;;4992489;28;20464;-43
2023/03/04 09:48:48;;;;;;;10.68;6.18;;;;;;;;;;4992186;28;20470;-43
2023/03/04 09:51:33;;;;;;;12.50;6.03;;;;;;;;;;4991485;28;20232;-42
2023/03/04 09:54:02;;;;;;;9.70;5.60;;;;;;;;;;4992303;28;20852;-44
2023/03/04 09:56:28;;;;;;;10.60;7.40;;;;;;;;;;4992095;28;20417;-44
2023/03/04 09:59:02;;;;;;;13.00;8.20;;;;;;;;;;4991886;28;20913;-43
2023/03/04 10:01:37;;;;;;;11.13;6.27;;;;;;;;;;4991703;28;20429;-43
2023/03/04 10:04:16;;;;;;;9.00;6.17;;;;;;;;;;4991230;28;20452;-44
2023/03/04 10:06:42;;;;;;;15.67;7.00;;;;;;;;;;4988493;28;20466;-44
2023/03/04 10:09:13;;;;;;;11.93;7.67;;;;;;;;;;4991122;28;20420;-43
2023/03/04 10:11:42;;;;;;;10.63;6.60;;;;;;;;;;4991576;28;20443;-43
2023/03/04 10:14:23;;;;;;;13.87;8.70;;;;;;;;;;4992185;28;20488;-43
2023/03/04 10:16:52;;;;;;;10.80;8.50;;;;;;;;;;4992753;28;20412;-44
2023/03/04 10:19:18;;;;;;;15.80;8.93;;;;;;;;;;4991588;28;20504;-42
2023/03/04 10:21:48;;;;;;;13.33;9.00;;;;;;;;;;4991297;28;20569;-43
2023/03/04 10:24:16;;;;;;;15.67;8.13;;;;;;;;;;4992099;28;20417;-43
2023/03/04 10:26:44;;;;;;;12.60;6.70;;;;;;;;;;4992074;28;20479;-44
2023/03/04 10:29:15;;;;;;;10.75;5.95;;;;;;;;;;4990425;28;20425;-44
2023/03/04 10:31:42;;;;;;;9.77;7.00;;;;;;;;;;4991535;28;20701;-43
2023/03/04 10:34:10;;;;;;;13.33;9.40;;;;;;;;;;4983218;28;20545;-44
2023/03/04 10:36:39;;;;;;;18.70;7.17;;;;;;;;;;4991400;28;20561;-44
2023/03/04 10:39:07;;;;;;;9.00;6.30;;;;;;;;;;4991474;28;20478;-44
2023/03/04 10:41:33;;;;;;;8.73;6.00;;;;;;;;;;4991159;28;20998;-44
2023/03/04 10:43:59;;;;;;;13.40;7.00;;;;;;;;;;4991831;28;20409;-44
2023/03/04 10:46:25;;;;;;;8.30;6.23;;;;;;;;;;4991488;28;20456;-43
2023/03/04 10:48:52;;;;;;;12.13;8.07;;;;;;;;;;4991399;28;20504;-44
2023/03/04 10:51:20;;;;;;;9.60;7.33;;;;;;;;;;4991025;28;20441;-43
2023/03/04 10:53:47;;;;;;;13.57;7.37;;;;;;;;;;4991703;28;20403;-44
2023/03/04 10:56:31;;;;;;;11.73;7.67;;;;;;;;;;4991804;28;20430;-42
2023/03/04 10:59:17;;;;;;;13.17;8.90;;;;;;;;;;4989859;28;20424;-43
2023/03/04 11:01:43;;;;;;;10.00;7.87;;;;;;;;;;4990790;28;20435;-44
2023/03/04 11:04:18;;;;;;;11.20;7.63;;;;;;;;;;4992763;28;20507;-44
2023/03/04 11:06:44;;;;;;;11.37;7.40;;;;;;;;;;4995192;28;20457;-43
2023/03/04 11:09:27;;;;;;;16.57;7.97;;;;;;;;;;4993568;28;20445;-43
2023/03/04 11:11:55;;;;;;;15.30;8.43;;;;;;;;;;4994616;28;20445;-44
2023/03/04 11:14:28;;;;;;;11.67;8.53;;;;;;;;;;4995422;28;20410;-42
2023/03/04 11:16:55;;;;;;;11.27;7.85;;;;;;;;;;4995179;28;20433;-43
2023/03/04 11:19:22;;;;;;;15.77;7.75;;;;;;;;;;4994910;28;20177;-44
2023/03/04 11:21:49;;;;;;;14.50;7.13;;;;;;;;;;4994215;28;20201;-43
2023/03/04 11:24:20;;;;;;;10.23;7.22;;;;;;;;;;4995244;28;20187;-43
2023/03/04 11:26:48;;;;;;;8.75;7.15;;;;;;;;;;4994977;28;20300;-43
2023/03/04 11:29:17;;;;;;;10.23;6.43;;;;;;;;;;4994906;28;20538;-43
2023/03/04 11:31:47;;;;;;;9.70;6.80;;;;;;;;;;4994058;28;20197;-44
2023/03/04 11:34:13;;;;;;;12.53;7.70;;;;;;;;;;4993647;28;20545;-43
2023/03/04 11:36:45;;;;;;;9.87;7.03;;;;;;;;;;4993976;28;20447;-44
2023/03/04 11:39:30;;;;;;;11.33;7.00;;;;;;;;;;4987374;28;20430;-43
2023/03/04 11:42:00;;;;;;;10.83;7.30;;;;;;;;;;4994043;28;20468;-43
2023/03/04 11:44:26;;;;;;;7.70;6.30;;;;;;;;;;4994794;28;20409;-44
2023/03/04 11:46:52;;;;;;;15.23;7.30;;;;;;;;;;4994677;28;20453;-43
2023/03/04 11:49:24;;;;;;;11.53;7.17;;;;;;;;;;4994782;28;20421;-44
2023/03/04 11:51:59;;;;;;;8.33;5.63;;;;;;;;;;4993694;28;20440;-44
2023/03/04 11:54:31;;;;;;;7.47;5.57;;;;;;;;;;4994632;28;20936;-43
2023/03/04 11:57:06;;;;;;;7.40;5.33;;;;;;;;;;4993042;28;20450;-44
2023/03/04 11:59:35;;;;;;;6.50;5.13;;;;;;;;;;4994371;28;20514;-43
2023/03/04 12:02:01;;;;;;;7.77;6.07;;;;;;;;;;4993430;28;20565;-44
2023/03/04 12:04:42;;;;;;;7.60;5.80;;;;;;;;;;4994538;28;20441;-43
2023/03/04 12:07:27;;;;;;;7.63;5.57;;;;;;;;;;4994247;28;20815;-44
2023/03/04 12:10:14;;;;;;;9.77;6.63;;;;;;;;;;4993345;28;20441;-44
2023/03/04 12:12:57;;;;;;;6.93;6.07;;;;;;;;;;4994312;28;20493;-43
2023/03/04 12:15:28;;;;;;;5.60;5.10;;;;;;;;;;4988041;28;20903;-43
2023/03/04 12:18:09;;;;;;;8.67;5.30;;;;;;;;;;4994050;28;20625;-43
2023/03/04 12:20:41;;;;;;;6.20;4.80;;;;;;;;;;4991732;28;20545;-43
2023/03/04 12:23:10;;;;;;;5.50;5.00;;;;;;;;;;4994044;28;20949;-43
2023/03/04 12:25:41;;;;;;;6.43;5.80;;;;;;;;;;4993970;28;20422;-43
2023/03/04 12:28:15;;;;;;;5.80;5.03;;;;;;;;;;4993963;28;20427;-43
2023/03/04 12:30:48;;;;;;;7.40;5.40;;;;;;;;;;4993035;28;20474;-43
2023/03/04 12:33:20;;;;;;;7.47;6.77;;;;;;;;;;4986450;28;20858;-43
2023/03/04 12:35:52;;;;;;;8.37;7.23;;;;;;;;;;4992755;28;20469;-43
2023/03/04 12:38:28;;;;;;;10.27;7.00;;;;;;;;;;4993287;28;20421;-43
2023/03/04 12:41:32;;;;;;;11.80;7.00;;;;;;;;;;4992554;28;20447;-43
2023/03/04 12:44:12;;;;;;;7.40;5.30;;;;;;;;;;4979972;28;20436;-44
2023/03/04 12:46:57;;;;;;;8.53;5.73;;;;;;;;;;4980433;28;20503;-42
2023/03/04 12:49:23;;;;;;;7.50;6.03;;;;;;;;;;4986524;28;20922;-41
2023/03/04 12:52:01;;;;;;;12.40;6.40;;;;;;;;;;4992652;28;20425;-42
2023/03/04 12:54:41;;;;;;;6.43;5.83;;;;;;;;;;4992855;28;20503;-43
2023/03/04 12:57:12;;;;;;;7.60;6.40;;;;;;;;;;4992506;28;20887;-42
2023/03/04 12:59:44;;;;;;;6.90;5.10;;;;;;;;;;4992820;28;20784;-43
2023/03/04 13:02:32;;;;;;;7.17;4.57;;;;;;;;;;4988036;28;20897;-42
2023/03/04 13:05:04;;;;;;;10.70;5.87;;;;;;;;;;4993628;28;20443;-42
2023/03/04 13:07:38;;;;;;;6.70;5.10;;;;;;;;;;4992481;28;20475;-41
2023/03/04 13:10:09;;;;;;;5.10;4.23;;;;;;;;;;4996190;28;20424;-42
2023/03/04 13:12:52;;;;;;;4.53;4.13;;;;;;;;;;4992971;28;20527;-41
2023/03/04 13:15:29;;;;;;;5.13;4.43;;;;;;;;;;4986170;28;20408;-43
2023/03/04 13:17:56;;;;;;;7.60;4.23;;;;;;;;;;4991686;28;20417;-42
2023/03/04 13:20:40;;;;;;;4.20;3.90;;;;;;;;;;4990862;28;20920;-43
2023/03/04 13:23:06;;;;;;;3.67;3.37;;;;;;;;;;4992554;28;20434;-42
2023/03/04 13:25:34;;;;;;;8.07;3.87;;;;;;;;;;4992339;28;20920;-42
2023/03/04 13:28:03;;;;;;;6.33;4.20;;;;;;;;;;4992458;28;20421;-42
2023/03/04 13:30:34;;;;;;;4.13;3.77;;;;;;;;;;4991866;28;20429;-42
2023/03/04 13:33:09;;;;;;;9.37;4.63;;;;;;;;;;4990013;28;20495;-42
2023/03/04 13:35:59;;;;;;;5.13;3.97;;;;;;;;;;4992579;28;20417;-42
2023/03/04 13:41:13;;;;;;;5.73;5.13;;;;;;;;;;4991884;28;20513;-42
2023/03/04 13:43:39;;;;;;;6.37;5.40;;;;;;;;;;4992406;28;20412;-44
2023/03/04 13:46:26;;;;;;;7.53;6.00;;;;;;;;;;4992187;28;20521;-42
2023/03/04 13:48:52;;;;;;;9.67;6.20;;;;;;;;;;4992344;28;20935;-42
2023/03/04 13:51:30;;;;;;;9.00;5.93;;;;;;;;;;4991565;28;20484;-42
2023/03/04 13:53:59;;;;;;;11.57;6.60;;;;;;;;;;4991689;28;20916;-43
2023/03/04 13:56:46;;;;;;;9.30;6.73;;;;;;;;;;4991937;28;20948;-43
2023/03/04 13:59:21;;;;;;;10.37;7.80;;;;;;;;;;4984529;28;20432;-43
2023/03/04 14:01:47;;;;;;;9.60;6.47;;;;;;;;;;4991095;28;20452;-42
2023/03/04 14:04:13;;;;;;;6.93;5.73;;;;;;;;;;4991702;28;20897;-42
2023/03/04 14:06:43;;;;;;;7.93;5.70;;;;;;;;;;4990798;28;20473;-43
2023/03/04 14:09:13;;;;;;;6.57;5.80;;;;;;;;;;4989037;28;20444;-43
2023/03/04 14:11:41;;;;;;;10.27;7.60;;;;;;;;;;4991238;28;20442;-43
2023/03/04 14:14:08;;;;;;;10.47;7.10;;;;;;;;;;4992015;28;20789;-42
2023/03/04 14:16:39;;;;;;;8.80;7.10;;;;;;;;;;4991874;28;20461;-42
2023/03/04 14:19:06;;;;;;;10.73;7.03;;;;;;;;;;4991615;28;20431;-43
2023/03/04 14:21:32;;;;;;;8.13;7.00;;;;;;;;;;4991137;28;20449;-42
2023/03/04 14:24:11;;;;;;;9.30;6.80;;;;;;;;;;4991699;28;20782;-42
2023/03/04 14:26:38;;;;;;;11.00;6.80;;;;;;;;;;4991725;28;20688;-42
2023/03/04 14:29:18;;;;;;;7.80;6.10;;;;;;;;;;4991679;28;20410;-42
2023/03/04 14:31:44;;;;;;;11.50;7.03;;;;;;;;;;4990936;28;20438;-42
2023/03/04 14:34:16;;;;;;;10.37;5.87;;;;;;;;;;4991427;28;20936;-42
2023/03/04 14:36:44;;;;;;;6.63;5.93;;;;;;;;;;4989935;28;21012;-43
2023/03/04 14:39:15;;;;;;;7.70;6.03;;;;;;;;;;4993378;28;20432;-43
2023/03/04 14:41:42;;;;;;;7.77;5.30;;;;;;;;;;4993727;28;20484;-43
2023/03/04 14:44:14;;;;;;;5.70;4.47;;;;;;;;;;4987719;28;20905;-43
2023/03/04 14:46:43;;;;;;;5.03;4.57;;;;;;;;;;4995743;28;20468;-42
2023/03/04 14:49:11;;;;;;;6.13;4.07;;;;;;;;;;4987898;28;20878;-41